Columbus/Rickenbacker ANGB, Ohio
Current Conditions -  °F | °C
As of 10:55 AM on Sunday 23 Nov 2014 (Local Time) from KLCK Reporting Station
Broken Clouds Broken Clouds  
Wind Chill: 53°   Ceiling: 5000
Heat Index: 53°   Visibility: 10mi
Dew Point: 37°   Wind: 6mph
Humidity: 55%   Direction: 130°SE
Pressure: 29.96"   Gusts: NA
Location:  39.82°N, 82.93°W
Report Text: KLCK 231555Z AUTO 13005KT 10SM SCT041 SCT048 BKN050 12/03 A2996 RMK AO2 T01170029
Loading
Personal Weather Stations






























Interactive Weather Map New forecast layout! Learn more

10-Day Weather Forecast

Advertisements
Track Severe Weather on mobile